Schwenksville, Pennsylvania
Current Conditions -  °F | °C
As of 4:54 PM on Thursday 18 Dec 2014 (Local Time) from KPTW Reporting Station
Few Clouds Few Clouds  
Wind Chill: 26°   Ceiling: Unl
Heat Index: 33°   Visibility: 10mi
Dew Point: 24°   Wind: 8mph
Humidity: 70%   Direction: 300°WNW
Pressure: 30.03"   Gusts: NA
Location:  40.26°N, 75.46°W
Report Text: KPTW 182154Z AUTO 30007KT 10SM FEW037 01/M04 A3003 RMK AO2 SLP168 T00061044
Loading
Personal Weather Stations






























Interactive Weather Map New forecast layout! Learn more

10-Day Weather Forecast

Advertisements
Track Severe Weather on mobile